Terminal Aerodrome Forecast
Issued by NWS

Home | Current Version | Previous Version | Graphics & Text | Print | Product List | Glossary On
Versions: 1 2 3 4 5 6 7 8 9 10 11 12 13
000
FTUS42 KMHX 212321
TAFOAJ
TAF
KOAJ 212321Z 2200/2224 00000KT P6SM SCT080
     FM220400 VRB04KT P6SM VCSH BKN070
     FM220800 02006KT P6SM -SHRA OVC025
     FM221400 01011KT P6SM BKN035
     FM221900 01012KT P6SM SCT200
      AMD LTD TO CLD VIS AND WIND=

USA.gov is the U.S. government's official web portal to all federal, state and local government web resources and services.